sensor_id;sensor_type;location;lat;lon;timestamp;P1;durP1;ratioP1;P2;durP2;ratioP2
56830;SDS011;42713;42.676;23.352;2022-12-13T00:01:28;11.65;;;4.60;;
56830;SDS011;42713;42.676;23.352;2022-12-13T00:03:54;11.60;;;5.00;;
56830;SDS011;42713;42.676;23.352;2022-12-13T00:06:21;12.02;;;4.55;;
56830;SDS011;42713;42.676;23.352;2022-12-13T00:08:48;11.27;;;5.30;;
56830;SDS011;42713;42.676;23.352;2022-12-13T00:11:13;10.80;;;5.00;;
56830;SDS011;42713;42.676;23.352;2022-12-13T00:13:40;13.73;;;4.72;;
56830;SDS011;42713;42.676;23.352;2022-12-13T00:16:08;10.25;;;4.38;;
56830;SDS011;42713;42.676;23.352;2022-12-13T00:18:35;9.65;;;4.22;;
56830;SDS011;42713;42.676;23.352;2022-12-13T00:21:05;9.90;;;4.32;;
56830;SDS011;42713;42.676;23.352;2022-12-13T00:23:32;9.35;;;4.43;;
56830;SDS011;42713;42.676;23.352;2022-12-13T00:26:03;12.48;;;4.95;;
56830;SDS011;42713;42.676;23.352;2022-12-13T00:28:34;11.75;;;4.95;;
56830;SDS011;42713;42.676;23.352;2022-12-13T00:31:00;12.43;;;5.75;;
56830;SDS011;42713;42.676;23.352;2022-12-13T00:33:26;12.82;;;4.88;;
56830;SDS011;42713;42.676;23.352;2022-12-13T00:35:52;11.68;;;4.72;;
56830;SDS011;42713;42.676;23.352;2022-12-13T00:38:18;11.40;;;4.57;;
56830;SDS011;42713;42.676;23.352;2022-12-13T00:40:47;12.40;;;5.40;;
56830;SDS011;42713;42.676;23.352;2022-12-13T00:43:12;11.32;;;5.18;;
56830;SDS011;42713;42.676;23.352;2022-12-13T00:45:38;11.98;;;5.40;;
56830;SDS011;42713;42.676;23.352;2022-12-13T00:48:04;11.18;;;5.28;;
56830;SDS011;42713;42.676;23.352;2022-12-13T00:50:32;11.10;;;4.68;;
56830;SDS011;42713;42.676;23.352;2022-12-13T00:53:01;11.95;;;5.03;;
56830;SDS011;42713;42.676;23.352;2022-12-13T00:55:26;11.93;;;5.45;;
56830;SDS011;42713;42.676;23.352;2022-12-13T00:57:52;10.93;;;5.00;;
56830;SDS011;42713;42.676;23.352;2022-12-13T01:00:18;14.30;;;5.40;;
56830;SDS011;42713;42.676;23.352;2022-12-13T01:02:44;13.20;;;5.25;;
56830;SDS011;42713;42.676;23.352;2022-12-13T01:05:10;12.05;;;5.30;;
56830;SDS011;42713;42.676;23.352;2022-12-13T01:07:36;11.80;;;5.47;;
56830;SDS011;42713;42.676;23.352;2022-12-13T01:10:03;10.35;;;5.18;;
56830;SDS011;42713;42.676;23.352;2022-12-13T01:12:31;13.85;;;5.32;;
56830;SDS011;42713;42.676;23.352;2022-12-13T01:14:58;11.52;;;5.47;;
56830;SDS011;42713;42.676;23.352;2022-12-13T01:17:24;12.02;;;5.45;;
56830;SDS011;42713;42.676;23.352;2022-12-13T01:19:50;13.50;;;5.65;;
56830;SDS011;42713;42.676;23.352;2022-12-13T01:22:15;14.15;;;5.30;;
56830;SDS011;42713;42.676;23.352;2022-12-13T01:24:41;12.95;;;5.78;;
56830;SDS011;42713;42.676;23.352;2022-12-13T01:27:06;11.60;;;5.10;;
56830;SDS011;42713;42.676;23.352;2022-12-13T01:29:32;11.93;;;5.90;;
56830;SDS011;42713;42.676;23.352;2022-12-13T01:31:57;12.50;;;5.43;;
56830;SDS011;42713;42.676;23.352;2022-12-13T01:34:24;12.77;;;5.70;;
56830;SDS011;42713;42.676;23.352;2022-12-13T01:36:51;13.40;;;5.13;;
56830;SDS011;42713;42.676;23.352;2022-12-13T01:39:18;14.35;;;5.90;;
56830;SDS011;42713;42.676;23.352;2022-12-13T01:41:45;11.38;;;5.30;;
56830;SDS011;42713;42.676;23.352;2022-12-13T01:47:16;15.68;;;6.13;;
56830;SDS011;42713;42.676;23.352;2022-12-13T01:49:48;14.00;;;5.95;;
56830;SDS011;42713;42.676;23.352;2022-12-13T01:52:15;13.55;;;6.60;;
56830;SDS011;42713;42.676;23.352;2022-12-13T01:54:43;13.18;;;5.93;;
56830;SDS011;42713;42.676;23.352;2022-12-13T01:57:13;14.00;;;6.03;;
56830;SDS011;42713;42.676;23.352;2022-12-13T01:59:41;14.48;;;5.93;;
56830;SDS011;42713;42.676;23.352;2022-12-13T02:02:09;15.02;;;6.82;;
56830;SDS011;42713;42.676;23.352;2022-12-13T02:04:43;13.85;;;6.63;;
56830;SDS011;42713;42.676;23.352;2022-12-13T02:07:32;11.80;;;5.60;;
56830;SDS011;42713;42.676;23.352;2022-12-13T02:10:00;14.75;;;6.50;;
56830;SDS011;42713;42.676;23.352;2022-12-13T02:12:29;13.88;;;6.40;;
56830;SDS011;42713;42.676;23.352;2022-12-13T02:15:00;15.55;;;7.00;;
56830;SDS011;42713;42.676;23.352;2022-12-13T02:26:42;13.98;;;6.88;;
56830;SDS011;42713;42.676;23.352;2022-12-13T02:31:58;15.07;;;6.55;;
56830;SDS011;42713;42.676;23.352;2022-12-13T02:34:37;14.00;;;6.25;;
56830;SDS011;42713;42.676;23.352;2022-12-13T02:39:35;15.52;;;7.30;;
56830;SDS011;42713;42.676;23.352;2022-12-13T02:42:09;13.70;;;6.68;;
56830;SDS011;42713;42.676;23.352;2022-12-13T02:44:54;15.57;;;7.68;;
56830;SDS011;42713;42.676;23.352;2022-12-13T02:47:24;15.73;;;7.03;;
56830;SDS011;42713;42.676;23.352;2022-12-13T02:49:56;16.83;;;7.53;;
56830;SDS011;42713;42.676;23.352;2022-12-13T02:52:24;14.98;;;6.95;;
56830;SDS011;42713;42.676;23.352;2022-12-13T02:54:55;18.23;;;8.85;;
56830;SDS011;42713;42.676;23.352;2022-12-13T02:57:26;18.63;;;8.95;;
56830;SDS011;42713;42.676;23.352;2022-12-13T02:59:57;19.58;;;8.40;;
56830;SDS011;42713;42.676;23.352;2022-12-13T03:08:29;14.40;;;7.15;;
56830;SDS011;42713;42.676;23.352;2022-12-13T03:10:42;15.60;;;7.57;;
56830;SDS011;42713;42.676;23.352;2022-12-13T03:13:18;14.90;;;7.60;;
56830;SDS011;42713;42.676;23.352;2022-12-13T03:18:53;15.75;;;7.13;;
56830;SDS011;42713;42.676;23.352;2022-12-13T03:21:22;14.15;;;6.93;;
56830;SDS011;42713;42.676;23.352;2022-12-13T03:23:47;15.30;;;7.30;;
56830;SDS011;42713;42.676;23.352;2022-12-13T03:26:17;16.27;;;6.95;;
56830;SDS011;42713;42.676;23.352;2022-12-13T03:28:46;14.52;;;7.25;;
56830;SDS011;42713;42.676;23.352;2022-12-13T03:31:12;14.13;;;6.80;;
56830;SDS011;42713;42.676;23.352;2022-12-13T03:33:37;15.27;;;6.55;;
56830;SDS011;42713;42.676;23.352;2022-12-13T03:36:03;14.68;;;6.97;;
56830;SDS011;42713;42.676;23.352;2022-12-13T03:38:30;14.68;;;7.18;;
56830;SDS011;42713;42.676;23.352;2022-12-13T03:40:56;16.33;;;7.43;;
56830;SDS011;42713;42.676;23.352;2022-12-13T03:43:25;16.67;;;7.30;;
56830;SDS011;42713;42.676;23.352;2022-12-13T03:45:51;15.60;;;6.97;;
56830;SDS011;42713;42.676;23.352;2022-12-13T03:48:17;16.23;;;7.00;;
56830;SDS011;42713;42.676;23.352;2022-12-13T03:50:44;14.57;;;6.65;;
56830;SDS011;42713;42.676;23.352;2022-12-13T03:53:09;16.15;;;7.50;;
56830;SDS011;42713;42.676;23.352;2022-12-13T03:55:34;18.40;;;8.13;;
56830;SDS011;42713;42.676;23.352;2022-12-13T03:58:00;17.02;;;8.20;;
56830;SDS011;42713;42.676;23.352;2022-12-13T04:00:26;17.13;;;8.18;;
56830;SDS011;42713;42.676;23.352;2022-12-13T04:02:51;18.38;;;8.68;;
56830;SDS011;42713;42.676;23.352;2022-12-13T04:05:17;16.08;;;7.95;;
56830;SDS011;42713;42.676;23.352;2022-12-13T04:07:42;17.15;;;8.02;;
56830;SDS011;42713;42.676;23.352;2022-12-13T04:10:08;17.58;;;8.07;;
56830;SDS011;42713;42.676;23.352;2022-12-13T04:12:34;17.45;;;8.07;;
56830;SDS011;42713;42.676;23.352;2022-12-13T04:15:18;16.02;;;7.55;;
56830;SDS011;42713;42.676;23.352;2022-12-13T04:17:43;17.38;;;7.72;;
56830;SDS011;42713;42.676;23.352;2022-12-13T04:20:09;17.35;;;8.02;;
56830;SDS011;42713;42.676;23.352;2022-12-13T04:22:35;16.60;;;8.32;;
56830;SDS011;42713;42.676;23.352;2022-12-13T04:25:00;15.60;;;8.00;;
56830;SDS011;42713;42.676;23.352;2022-12-13T04:27:25;18.63;;;8.55;;
56830;SDS011;42713;42.676;23.352;2022-12-13T04:29:51;16.88;;;6.75;;
56830;SDS011;42713;42.676;23.352;2022-12-13T04:32:16;16.85;;;7.85;;
56830;SDS011;42713;42.676;23.352;2022-12-13T04:34:42;17.65;;;8.23;;
56830;SDS011;42713;42.676;23.352;2022-12-13T04:37:08;15.95;;;7.70;;
56830;SDS011;42713;42.676;23.352;2022-12-13T04:39:33;19.45;;;8.45;;
56830;SDS011;42713;42.676;23.352;2022-12-13T04:41:59;20.98;;;9.50;;
56830;SDS011;42713;42.676;23.352;2022-12-13T04:44:24;18.80;;;8.48;;
56830;SDS011;42713;42.676;23.352;2022-12-13T04:46:50;18.70;;;9.50;;
56830;SDS011;42713;42.676;23.352;2022-12-13T04:49:15;18.77;;;9.25;;
56830;SDS011;42713;42.676;23.352;2022-12-13T04:51:42;21.20;;;9.52;;
56830;SDS011;42713;42.676;23.352;2022-12-13T04:54:07;18.00;;;9.05;;
56830;SDS011;42713;42.676;23.352;2022-12-13T04:56:33;16.90;;;7.88;;
56830;SDS011;42713;42.676;23.352;2022-12-13T04:58:58;18.98;;;8.75;;
56830;SDS011;42713;42.676;23.352;2022-12-13T05:01:24;19.30;;;9.02;;
56830;SDS011;42713;42.676;23.352;2022-12-13T05:03:49;17.45;;;8.05;;
56830;SDS011;42713;42.676;23.352;2022-12-13T05:06:15;19.33;;;8.43;;
56830;SDS011;42713;42.676;23.352;2022-12-13T05:08:40;15.90;;;8.32;;
56830;SDS011;42713;42.676;23.352;2022-12-13T05:11:06;15.10;;;7.78;;
56830;SDS011;42713;42.676;23.352;2022-12-13T05:13:34;14.68;;;5.93;;
56830;SDS011;42713;42.676;23.352;2022-12-13T05:16:00;18.88;;;9.15;;
56830;SDS011;42713;42.676;23.352;2022-12-13T05:18:28;17.60;;;8.50;;
56830;SDS011;42713;42.676;23.352;2022-12-13T05:20:54;16.42;;;7.95;;
56830;SDS011;42713;42.676;23.352;2022-12-13T05:23:20;17.27;;;8.23;;
56830;SDS011;42713;42.676;23.352;2022-12-13T05:25:49;16.73;;;8.00;;
56830;SDS011;42713;42.676;23.352;2022-12-13T05:28:14;20.02;;;8.32;;
56830;SDS011;42713;42.676;23.352;2022-12-13T05:30:40;17.08;;;7.97;;
56830;SDS011;42713;42.676;23.352;2022-12-13T05:33:07;18.83;;;8.88;;
56830;SDS011;42713;42.676;23.352;2022-12-13T05:35:33;17.08;;;8.57;;
56830;SDS011;42713;42.676;23.352;2022-12-13T05:37:59;17.33;;;7.78;;
56830;SDS011;42713;42.676;23.352;2022-12-13T05:40:25;19.73;;;8.40;;
56830;SDS011;42713;42.676;23.352;2022-12-13T05:42:53;16.98;;;8.13;;
56830;SDS011;42713;42.676;23.352;2022-12-13T05:45:19;17.58;;;8.13;;
56830;SDS011;42713;42.676;23.352;2022-12-13T05:47:45;18.17;;;8.25;;
56830;SDS011;42713;42.676;23.352;2022-12-13T05:50:12;16.92;;;7.70;;
56830;SDS011;42713;42.676;23.352;2022-12-13T05:52:38;19.30;;;8.45;;
56830;SDS011;42713;42.676;23.352;2022-12-13T05:55:04;18.88;;;9.10;;
56830;SDS011;42713;42.676;23.352;2022-12-13T05:57:30;19.92;;;9.73;;
56830;SDS011;42713;42.676;23.352;2022-12-13T05:59:56;17.15;;;8.05;;
56830;SDS011;42713;42.676;23.352;2022-12-13T06:02:21;17.83;;;8.77;;
56830;SDS011;42713;42.676;23.352;2022-12-13T06:04:47;17.55;;;8.70;;
56830;SDS011;42713;42.676;23.352;2022-12-13T06:07:13;21.30;;;9.18;;
56830;SDS011;42713;42.676;23.352;2022-12-13T06:09:39;19.35;;;9.85;;
56830;SDS011;42713;42.676;23.352;2022-12-13T06:12:04;20.98;;;9.98;;
56830;SDS011;42713;42.676;23.352;2022-12-13T06:14:30;19.30;;;8.57;;
56830;SDS011;42713;42.676;23.352;2022-12-13T06:16:56;20.25;;;8.98;;
56830;SDS011;42713;42.676;23.352;2022-12-13T06:19:22;16.25;;;8.27;;
56830;SDS011;42713;42.676;23.352;2022-12-13T06:21:51;17.13;;;8.75;;
56830;SDS011;42713;42.676;23.352;2022-12-13T06:24:19;16.90;;;8.15;;
56830;SDS011;42713;42.676;23.352;2022-12-13T06:26:45;18.40;;;8.55;;
56830;SDS011;42713;42.676;23.352;2022-12-13T06:29:12;19.15;;;8.38;;
56830;SDS011;42713;42.676;23.352;2022-12-13T06:31:38;16.25;;;8.65;;
56830;SDS011;42713;42.676;23.352;2022-12-13T06:34:04;16.90;;;8.48;;
56830;SDS011;42713;42.676;23.352;2022-12-13T06:36:29;17.92;;;8.43;;
56830;SDS011;42713;42.676;23.352;2022-12-13T06:38:55;19.85;;;8.32;;
56830;SDS011;42713;42.676;23.352;2022-12-13T06:41:20;17.40;;;8.32;;
56830;SDS011;42713;42.676;23.352;2022-12-13T06:43:46;20.55;;;8.70;;
56830;SDS011;42713;42.676;23.352;2022-12-13T06:46:13;18.27;;;7.28;;
56830;SDS011;42713;42.676;23.352;2022-12-13T06:48:39;17.23;;;8.75;;
56830;SDS011;42713;42.676;23.352;2022-12-13T06:51:06;19.50;;;8.88;;
56830;SDS011;42713;42.676;23.352;2022-12-13T06:53:37;20.13;;;9.13;;
56830;SDS011;42713;42.676;23.352;2022-12-13T06:56:10;22.30;;;9.38;;
56830;SDS011;42713;42.676;23.352;2022-12-13T06:58:38;18.92;;;9.13;;
56830;SDS011;42713;42.676;23.352;2022-12-13T07:01:05;19.27;;;9.55;;
56830;SDS011;42713;42.676;23.352;2022-12-13T07:03:33;19.75;;;9.43;;
56830;SDS011;42713;42.676;23.352;2022-12-13T07:06:04;19.25;;;8.52;;
56830;SDS011;42713;42.676;23.352;2022-12-13T07:08:36;18.35;;;8.80;;
56830;SDS011;42713;42.676;23.352;2022-12-13T07:11:02;18.92;;;9.05;;
56830;SDS011;42713;42.676;23.352;2022-12-13T07:13:28;18.15;;;7.68;;
56830;SDS011;42713;42.676;23.352;2022-12-13T07:15:55;23.00;;;10.02;;
56830;SDS011;42713;42.676;23.352;2022-12-13T07:18:21;22.35;;;8.60;;
56830;SDS011;42713;42.676;23.352;2022-12-13T07:20:46;16.50;;;8.23;;
56830;SDS011;42713;42.676;23.352;2022-12-13T07:23:12;19.88;;;8.73;;
56830;SDS011;42713;42.676;23.352;2022-12-13T07:25:38;17.52;;;8.40;;
56830;SDS011;42713;42.676;23.352;2022-12-13T07:28:04;17.52;;;8.88;;
56830;SDS011;42713;42.676;23.352;2022-12-13T07:30:33;20.38;;;9.02;;
56830;SDS011;42713;42.676;23.352;2022-12-13T07:33:01;17.83;;;8.88;;
56830;SDS011;42713;42.676;23.352;2022-12-13T07:35:28;21.05;;;8.95;;
56830;SDS011;42713;42.676;23.352;2022-12-13T07:37:54;16.90;;;8.73;;
56830;SDS011;42713;42.676;23.352;2022-12-13T07:40:20;20.20;;;8.73;;
56830;SDS011;42713;42.676;23.352;2022-12-13T07:42:49;18.48;;;8.95;;
56830;SDS011;42713;42.676;23.352;2022-12-13T07:45:15;20.17;;;9.05;;
56830;SDS011;42713;42.676;23.352;2022-12-13T07:47:41;21.50;;;9.57;;
56830;SDS011;42713;42.676;23.352;2022-12-13T07:50:06;20.63;;;9.38;;
56830;SDS011;42713;42.676;23.352;2022-12-13T07:52:32;20.17;;;9.90;;
56830;SDS011;42713;42.676;23.352;2022-12-13T07:54:57;18.77;;;8.85;;
56830;SDS011;42713;42.676;23.352;2022-12-13T07:57:23;20.13;;;9.45;;
56830;SDS011;42713;42.676;23.352;2022-12-13T07:59:48;21.42;;;9.95;;
56830;SDS011;42713;42.676;23.352;2022-12-13T08:02:14;22.10;;;10.52;;
56830;SDS011;42713;42.676;23.352;2022-12-13T08:04:43;22.13;;;10.77;;
56830;SDS011;42713;42.676;23.352;2022-12-13T08:07:08;20.25;;;10.13;;
56830;SDS011;42713;42.676;23.352;2022-12-13T08:09:35;21.77;;;10.05;;
56830;SDS011;42713;42.676;23.352;2022-12-13T08:12:00;18.70;;;9.60;;
56830;SDS011;42713;42.676;23.352;2022-12-13T08:14:26;20.95;;;9.73;;
56830;SDS011;42713;42.676;23.352;2022-12-13T08:16:52;20.40;;;9.40;;
56830;SDS011;42713;42.676;23.352;2022-12-13T08:19:18;18.52;;;8.77;;
56830;SDS011;42713;42.676;23.352;2022-12-13T08:21:43;20.08;;;8.88;;
56830;SDS011;42713;42.676;23.352;2022-12-13T08:24:10;18.65;;;8.65;;
56830;SDS011;42713;42.676;23.352;2022-12-13T08:26:36;17.67;;;8.73;;
56830;SDS011;42713;42.676;23.352;2022-12-13T08:29:02;19.42;;;8.40;;
56830;SDS011;42713;42.676;23.352;2022-12-13T08:31:28;20.20;;;9.02;;
56830;SDS011;42713;42.676;23.352;2022-12-13T08:33:54;22.77;;;9.20;;
56830;SDS011;42713;42.676;23.352;2022-12-13T08:36:20;19.45;;;8.90;;
56830;SDS011;42713;42.676;23.352;2022-12-13T08:38:53;24.23;;;9.65;;
56830;SDS011;42713;42.676;23.352;2022-12-13T08:41:20;17.52;;;8.48;;
56830;SDS011;42713;42.676;23.352;2022-12-13T08:43:46;18.40;;;8.55;;
56830;SDS011;42713;42.676;23.352;2022-12-13T08:46:11;17.10;;;8.25;;
56830;SDS011;42713;42.676;23.352;2022-12-13T08:48:37;20.00;;;8.75;;
56830;SDS011;42713;42.676;23.352;2022-12-13T08:51:04;17.85;;;8.60;;
56830;SDS011;42713;42.676;23.352;2022-12-13T08:53:35;17.35;;;9.10;;
56830;SDS011;42713;42.676;23.352;2022-12-13T08:56:01;19.45;;;8.15;;
56830;SDS011;42713;42.676;23.352;2022-12-13T08:58:27;17.67;;;8.43;;
56830;SDS011;42713;42.676;23.352;2022-12-13T09:00:54;18.20;;;7.80;;
56830;SDS011;42713;42.676;23.352;2022-12-13T09:03:19;16.40;;;7.78;;
56830;SDS011;42713;42.676;23.352;2022-12-13T09:05:45;17.15;;;7.85;;
56830;SDS011;42713;42.676;23.352;2022-12-13T09:08:11;17.15;;;8.20;;
56830;SDS011;42713;42.676;23.352;2022-12-13T09:10:36;18.27;;;7.90;;
56830;SDS011;42713;42.676;23.352;2022-12-13T09:13:02;14.50;;;6.95;;
56830;SDS011;42713;42.676;23.352;2022-12-13T09:15:29;13.15;;;6.35;;
56830;SDS011;42713;42.676;23.352;2022-12-13T09:17:55;15.05;;;7.20;;
56830;SDS011;42713;42.676;23.352;2022-12-13T09:20:21;15.10;;;6.60;;
56830;SDS011;42713;42.676;23.352;2022-12-13T09:22:47;15.20;;;6.13;;
56830;SDS011;42713;42.676;23.352;2022-12-13T09:25:12;13.38;;;6.60;;
56830;SDS011;42713;42.676;23.352;2022-12-13T09:27:38;14.07;;;6.90;;
56830;SDS011;42713;42.676;23.352;2022-12-13T09:30:04;16.77;;;7.38;;
56830;SDS011;42713;42.676;23.352;2022-12-13T09:32:30;15.13;;;7.15;;
56830;SDS011;42713;42.676;23.352;2022-12-13T09:34:56;19.10;;;8.60;;
56830;SDS011;42713;42.676;23.352;2022-12-13T09:37:22;17.00;;;7.20;;
56830;SDS011;42713;42.676;23.352;2022-12-13T09:39:47;17.60;;;8.10;;
56830;SDS011;42713;42.676;23.352;2022-12-13T09:42:20;14.40;;;6.68;;
56830;SDS011;42713;42.676;23.352;2022-12-13T09:44:50;17.33;;;6.82;;
56830;SDS011;42713;42.676;23.352;2022-12-13T09:47:33;14.50;;;6.50;;
56830;SDS011;42713;42.676;23.352;2022-12-13T09:50:05;17.10;;;7.88;;
56830;SDS011;42713;42.676;23.352;2022-12-13T09:52:51;15.48;;;7.18;;
56830;SDS011;42713;42.676;23.352;2022-12-13T09:55:19;16.25;;;7.50;;
56830;SDS011;42713;42.676;23.352;2022-12-13T09:57:47;15.93;;;7.57;;
56830;SDS011;42713;42.676;23.352;2022-12-13T10:00:15;13.70;;;6.70;;
56830;SDS011;42713;42.676;23.352;2022-12-13T10:02:46;17.48;;;8.25;;
56830;SDS011;42713;42.676;23.352;2022-12-13T10:05:28;17.08;;;7.60;;
56830;SDS011;42713;42.676;23.352;2022-12-13T10:07:59;16.45;;;8.00;;
56830;SDS011;42713;42.676;23.352;2022-12-13T10:10:30;14.75;;;7.30;;
56830;SDS011;42713;42.676;23.352;2022-12-13T10:15:36;16.02;;;8.20;;
56830;SDS011;42713;42.676;23.352;2022-12-13T10:18:05;20.77;;;7.97;;
56830;SDS011;42713;42.676;23.352;2022-12-13T10:20:34;21.90;;;9.38;;
56830;SDS011;42713;42.676;23.352;2022-12-13T10:23:00;15.98;;;8.27;;
56830;SDS011;42713;42.676;23.352;2022-12-13T10:28:25;16.02;;;7.15;;
56830;SDS011;42713;42.676;23.352;2022-12-13T10:30:53;17.38;;;7.82;;
56830;SDS011;42713;42.676;23.352;2022-12-13T10:33:22;16.73;;;7.70;;
56830;SDS011;42713;42.676;23.352;2022-12-13T10:36:36;15.93;;;8.07;;
56830;SDS011;42713;42.676;23.352;2022-12-13T10:38:42;19.70;;;8.00;;
56830;SDS011;42713;42.676;23.352;2022-12-13T10:46:42;15.20;;;7.80;;
56830;SDS011;42713;42.676;23.352;2022-12-13T10:49:14;17.30;;;8.10;;
56830;SDS011;42713;42.676;23.352;2022-12-13T10:51:48;15.20;;;7.22;;
56830;SDS011;42713;42.676;23.352;2022-12-13T10:54:24;17.52;;;7.13;;
56830;SDS011;42713;42.676;23.352;2022-12-13T10:56:52;15.02;;;8.50;;
56830;SDS011;42713;42.676;23.352;2022-12-13T11:02:00;19.75;;;8.70;;
56830;SDS011;42713;42.676;23.352;2022-12-13T11:04:46;15.98;;;8.18;;
56830;SDS011;42713;42.676;23.352;2022-12-13T11:07:22;17.85;;;8.73;;
56830;SDS011;42713;42.676;23.352;2022-12-13T11:09:52;55.55;;;10.35;;
56830;SDS011;42713;42.676;23.352;2022-12-13T11:12:19;19.27;;;8.75;;
56830;SDS011;42713;42.676;23.352;2022-12-13T11:15:05;18.63;;;8.65;;
56830;SDS011;42713;42.676;23.352;2022-12-13T11:17:32;17.95;;;8.68;;
56830;SDS011;42713;42.676;23.352;2022-12-13T11:20:04;17.33;;;7.85;;
56830;SDS011;42713;42.676;23.352;2022-12-13T11:22:39;15.82;;;7.45;;
56830;SDS011;42713;42.676;23.352;2022-12-13T11:25:06;18.52;;;8.18;;
56830;SDS011;42713;42.676;23.352;2022-12-13T11:27:47;15.43;;;7.50;;
56830;SDS011;42713;42.676;23.352;2022-12-13T11:30:26;17.35;;;6.63;;
56830;SDS011;42713;42.676;23.352;2022-12-13T11:35:47;14.15;;;6.82;;
56830;SDS011;42713;42.676;23.352;2022-12-13T11:47:38;16.77;;;7.97;;
56830;SDS011;42713;42.676;23.352;2022-12-13T11:50:29;17.90;;;8.73;;
56830;SDS011;42713;42.676;23.352;2022-12-13T11:56:05;17.17;;;8.15;;
56830;SDS011;42713;42.676;23.352;2022-12-13T11:58:46;17.40;;;9.07;;
56830;SDS011;42713;42.676;23.352;2022-12-13T12:01:24;17.17;;;7.88;;
56830;SDS011;42713;42.676;23.352;2022-12-13T12:04:13;15.05;;;7.13;;
56830;SDS011;42713;42.676;23.352;2022-12-13T12:07:03;13.43;;;6.97;;
56830;SDS011;42713;42.676;23.352;2022-12-13T12:09:37;14.20;;;6.60;;
56830;SDS011;42713;42.676;23.352;2022-12-13T12:12:11;15.30;;;6.90;;
56830;SDS011;42713;42.676;23.352;2022-12-13T12:17:20;12.55;;;6.07;;
56830;SDS011;42713;42.676;23.352;2022-12-13T12:19:50;13.15;;;6.28;;
56830;SDS011;42713;42.676;23.352;2022-12-13T12:30:21;15.95;;;7.50;;
56830;SDS011;42713;42.676;23.352;2022-12-13T12:53:05;16.35;;;7.10;;
56830;SDS011;42713;42.676;23.352;2022-12-13T12:58:43;13.65;;;7.03;;
56830;SDS011;42713;42.676;23.352;2022-12-13T13:01:32;13.52;;;7.00;;
56830;SDS011;42713;42.676;23.352;2022-12-13T13:04:10;18.38;;;8.07;;
56830;SDS011;42713;42.676;23.352;2022-12-13T13:06:42;16.85;;;8.27;;
56830;SDS011;42713;42.676;23.352;2022-12-13T13:09:11;16.50;;;7.93;;
56830;SDS011;42713;42.676;23.352;2022-12-13T13:11:41;19.15;;;8.77;;
56830;SDS011;42713;42.676;23.352;2022-12-13T13:16:54;18.55;;;8.40;;
56830;SDS011;42713;42.676;23.352;2022-12-13T13:22:14;16.33;;;8.60;;
56830;SDS011;42713;42.676;23.352;2022-12-13T13:27:30;14.38;;;7.75;;
56830;SDS011;42713;42.676;23.352;2022-12-13T13:30:18;15.43;;;7.68;;
56830;SDS011;42713;42.676;23.352;2022-12-13T13:37:52;15.15;;;8.13;;
56830;SDS011;42713;42.676;23.352;2022-12-13T13:40:26;16.27;;;8.13;;
56830;SDS011;42713;42.676;23.352;2022-12-13T14:21:41;19.00;;;9.95;;
56830;SDS011;42713;42.676;23.352;2022-12-13T14:24:24;18.77;;;9.43;;
56830;SDS011;42713;42.676;23.352;2022-12-13T14:29:57;22.60;;;11.05;;
56830;SDS011;42713;42.676;23.352;2022-12-13T14:32:24;21.55;;;11.23;;
56830;SDS011;42713;42.676;23.352;2022-12-13T14:34:52;19.40;;;10.38;;
56830;SDS011;42713;42.676;23.352;2022-12-13T14:37:24;23.67;;;10.68;;
56830;SDS011;42713;42.676;23.352;2022-12-13T14:39:57;26.38;;;11.90;;
56830;SDS011;42713;42.676;23.352;2022-12-13T14:42:28;23.88;;;11.25;;
56830;SDS011;42713;42.676;23.352;2022-12-13T14:45:14;24.67;;;11.35;;
56830;SDS011;42713;42.676;23.352;2022-12-13T14:47:46;21.13;;;10.55;;
56830;SDS011;42713;42.676;23.352;2022-12-13T14:50:13;29.02;;;14.88;;
56830;SDS011;42713;42.676;23.352;2022-12-13T14:52:44;27.40;;;13.98;;
56830;SDS011;42713;42.676;23.352;2022-12-13T14:55:27;32.20;;;14.82;;
56830;SDS011;42713;42.676;23.352;2022-12-13T14:57:56;29.13;;;14.77;;
56830;SDS011;42713;42.676;23.352;2022-12-13T15:00:34;32.13;;;15.05;;
56830;SDS011;42713;42.676;23.352;2022-12-13T15:03:03;29.90;;;14.70;;
56830;SDS011;42713;42.676;23.352;2022-12-13T15:08:02;32.08;;;15.15;;
56830;SDS011;42713;42.676;23.352;2022-12-13T15:10:40;26.98;;;14.25;;
56830;SDS011;42713;42.676;23.352;2022-12-13T15:13:17;32.60;;;14.05;;
56830;SDS011;42713;42.676;23.352;2022-12-13T15:15:45;28.08;;;14.23;;
56830;SDS011;42713;42.676;23.352;2022-12-13T15:20:45;31.13;;;14.93;;
56830;SDS011;42713;42.676;23.352;2022-12-13T15:25:43;29.63;;;14.52;;
56830;SDS011;42713;42.676;23.352;2022-12-13T15:28:13;34.13;;;15.32;;
56830;SDS011;42713;42.676;23.352;2022-12-13T15:30:41;31.20;;;15.35;;
56830;SDS011;42713;42.676;23.352;2022-12-13T15:33:21;36.05;;;16.33;;
56830;SDS011;42713;42.676;23.352;2022-12-13T15:35:49;32.38;;;15.88;;
56830;SDS011;42713;42.676;23.352;2022-12-13T15:38:27;35.67;;;16.55;;
56830;SDS011;42713;42.676;23.352;2022-12-13T15:40:53;31.23;;;14.73;;
56830;SDS011;42713;42.676;23.352;2022-12-13T15:43:19;28.67;;;15.35;;
56830;SDS011;42713;42.676;23.352;2022-12-13T15:45:47;35.67;;;17.15;;
56830;SDS011;42713;42.676;23.352;2022-12-13T15:48:22;31.58;;;16.30;;
56830;SDS011;42713;42.676;23.352;2022-12-13T15:51:03;36.95;;;16.90;;
56830;SDS011;42713;42.676;23.352;2022-12-13T15:53:33;33.47;;;17.67;;
56830;SDS011;42713;42.676;23.352;2022-12-13T15:55:59;33.72;;;16.80;;
56830;SDS011;42713;42.676;23.352;2022-12-13T15:58:26;37.00;;;18.42;;
56830;SDS011;42713;42.676;23.352;2022-12-13T16:00:57;35.75;;;17.52;;
56830;SDS011;42713;42.676;23.352;2022-12-13T16:03:29;31.38;;;17.40;;
56830;SDS011;42713;42.676;23.352;2022-12-13T16:06:16;35.28;;;16.40;;
56830;SDS011;42713;42.676;23.352;2022-12-13T16:08:42;36.03;;;18.13;;
56830;SDS011;42713;42.676;23.352;2022-12-13T16:11:13;36.65;;;18.10;;
56830;SDS011;42713;42.676;23.352;2022-12-13T16:13:39;38.60;;;18.88;;
56830;SDS011;42713;42.676;23.352;2022-12-13T16:18:41;46.58;;;18.80;;
56830;SDS011;42713;42.676;23.352;2022-12-13T16:21:09;35.90;;;18.95;;
56830;SDS011;42713;42.676;23.352;2022-12-13T16:23:35;36.13;;;17.13;;
56830;SDS011;42713;42.676;23.352;2022-12-13T16:26:00;36.38;;;18.08;;
56830;SDS011;42713;42.676;23.352;2022-12-13T16:28:26;36.80;;;18.42;;
56830;SDS011;42713;42.676;23.352;2022-12-13T16:33:20;37.63;;;18.60;;
56830;SDS011;42713;42.676;23.352;2022-12-13T16:35:47;35.33;;;16.95;;
56830;SDS011;42713;42.676;23.352;2022-12-13T16:38:14;40.20;;;18.98;;
56830;SDS011;42713;42.676;23.352;2022-12-13T16:40:40;36.97;;;18.05;;
56830;SDS011;42713;42.676;23.352;2022-12-13T16:43:12;38.47;;;18.67;;
56830;SDS011;42713;42.676;23.352;2022-12-13T16:45:45;36.42;;;18.33;;
56830;SDS011;42713;42.676;23.352;2022-12-13T16:48:14;30.63;;;16.95;;
56830;SDS011;42713;42.676;23.352;2022-12-13T16:50:43;35.33;;;16.92;;
56830;SDS011;42713;42.676;23.352;2022-12-13T16:53:10;33.78;;;17.05;;
56830;SDS011;42713;42.676;23.352;2022-12-13T16:55:36;35.45;;;18.25;;
56830;SDS011;42713;42.676;23.352;2022-12-13T16:58:05;36.85;;;17.85;;
56830;SDS011;42713;42.676;23.352;2022-12-13T17:00:34;33.08;;;17.27;;
56830;SDS011;42713;42.676;23.352;2022-12-13T17:02:59;40.35;;;18.83;;
56830;SDS011;42713;42.676;23.352;2022-12-13T17:05:26;37.53;;;18.60;;